sensor_id;sensor_type;location;lat;lon;timestamp;pressure;altitude;pressure_sealevel;temperature;humidity
3654;BME280;70277;54.302;10.064;2024-03-08T00:00:29;102327.97;;;3.61;76.25
3654;BME280;70277;54.302;10.064;2024-03-08T00:02:55;102318.94;;;3.78;76.78
3654;BME280;70277;54.302;10.064;2024-03-08T00:05:22;102336.84;;;3.78;76.35
3654;BME280;70277;54.302;10.064;2024-03-08T00:07:48;102331.00;;;3.99;75.54
3654;BME280;70277;54.302;10.064;2024-03-08T00:10:15;102331.66;;;3.84;75.53
3654;BME280;70277;54.302;10.064;2024-03-08T00:12:44;102323.31;;;3.79;75.83
3654;BME280;70277;54.302;10.064;2024-03-08T00:15:16;102322.97;;;3.82;75.51
3654;BME280;70277;54.302;10.064;2024-03-08T00:17:46;102333.19;;;3.79;75.73
3654;BME280;70277;54.302;10.064;2024-03-08T00:20:14;102328.94;;;3.60;76.45
3654;BME280;70277;54.302;10.064;2024-03-08T00:22:41;102325.47;;;3.76;75.80
3654;BME280;70277;54.302;10.064;2024-03-08T00:25:08;102324.53;;;3.42;76.55
3654;BME280;70277;54.302;10.064;2024-03-08T00:27:41;102317.56;;;3.58;76.01
3654;BME280;70277;54.302;10.064;2024-03-08T00:30:08;102326.59;;;3.57;76.03
3654;BME280;70277;54.302;10.064;2024-03-08T00:32:35;102322.59;;;3.53;75.66
3654;BME280;70277;54.302;10.064;2024-03-08T00:35:02;102323.41;;;3.53;75.79
3654;BME280;70277;54.302;10.064;2024-03-08T00:37:29;102319.56;;;3.48;76.11
3654;BME280;70277;54.302;10.064;2024-03-08T00:39:56;102309.50;;;3.41;76.12
3654;BME280;70277;54.302;10.064;2024-03-08T00:42:22;102311.03;;;3.52;76.20
3654;BME280;70277;54.302;10.064;2024-03-08T00:44:50;102312.44;;;3.22;76.24
3654;BME280;70277;54.302;10.064;2024-03-08T00:47:18;102307.16;;;3.38;76.52
3654;BME280;70277;54.302;10.064;2024-03-08T00:49:45;102307.84;;;3.49;76.02
3654;BME280;70277;54.302;10.064;2024-03-08T00:52:13;102310.84;;;3.37;76.39
3654;BME280;70277;54.302;10.064;2024-03-08T00:54:39;102309.47;;;3.33;76.04
3654;BME280;70277;54.302;10.064;2024-03-08T00:57:06;102299.75;;;3.24;76.63
3654;BME280;70277;54.302;10.064;2024-03-08T00:59:33;102303.56;;;3.22;76.76
3654;BME280;70277;54.302;10.064;2024-03-08T01:02:01;102290.75;;;3.33;76.48
3654;BME280;70277;54.302;10.064;2024-03-08T01:04:28;102285.56;;;3.40;76.05
3654;BME280;70277;54.302;10.064;2024-03-08T01:06:58;102278.63;;;3.05;76.91
3654;BME280;70277;54.302;10.064;2024-03-08T01:09:25;102289.38;;;3.21;76.71
3654;BME280;70277;54.302;10.064;2024-03-08T01:11:56;102283.44;;;2.93;77.42
3654;BME280;70277;54.302;10.064;2024-03-08T01:14:24;102271.59;;;3.04;77.30
3654;BME280;70277;54.302;10.064;2024-03-08T01:16:55;102276.78;;;3.05;77.59
3654;BME280;70277;54.302;10.064;2024-03-08T01:19:21;102275.66;;;3.24;76.77
3654;BME280;70277;54.302;10.064;2024-03-08T01:21:48;102278.72;;;3.37;76.34
3654;BME280;70277;54.302;10.064;2024-03-08T01:24:14;102271.97;;;3.17;76.73
3654;BME280;70277;54.302;10.064;2024-03-08T01:26:41;102267.47;;;3.17;77.14
3654;BME280;70277;54.302;10.064;2024-03-08T01:29:08;102270.28;;;3.08;76.66
3654;BME280;70277;54.302;10.064;2024-03-08T01:31:35;102253.38;;;3.07;77.05
3654;BME280;70277;54.302;10.064;2024-03-08T01:34:03;102254.91;;;3.18;76.90
3654;BME280;70277;54.302;10.064;2024-03-08T01:36:29;102258.72;;;2.99;77.55
3654;BME280;70277;54.302;10.064;2024-03-08T01:38:56;102249.00;;;2.98;77.21
3654;BME280;70277;54.302;10.064;2024-03-08T01:41:22;102254.56;;;3.05;76.91
3654;BME280;70277;54.302;10.064;2024-03-08T01:43:49;102243.72;;;3.14;76.81
3654;BME280;70277;54.302;10.064;2024-03-08T01:46:19;102240.72;;;3.17;75.98
3654;BME280;70277;54.302;10.064;2024-03-08T01:48:48;102234.81;;;3.06;76.33
3654;BME280;70277;54.302;10.064;2024-03-08T01:51:18;102229.84;;;3.11;75.88
3654;BME280;70277;54.302;10.064;2024-03-08T01:53:46;102231.13;;;3.07;76.14
3654;BME280;70277;54.302;10.064;2024-03-08T01:56:14;102222.78;;;3.10;75.86
3654;BME280;70277;54.302;10.064;2024-03-08T01:58:41;102228.63;;;3.13;75.58
3654;BME280;70277;54.302;10.064;2024-03-08T02:01:11;102223.66;;;3.18;75.23
3654;BME280;70277;54.302;10.064;2024-03-08T02:03:39;102218.13;;;3.12;75.61
3654;BME280;70277;54.302;10.064;2024-03-08T02:06:05;102224.59;;;2.93;76.20
3654;BME280;70277;54.302;10.064;2024-03-08T02:08:36;102220.66;;;2.71;76.88
3654;BME280;70277;54.302;10.064;2024-03-08T02:11:04;102224.94;;;2.90;77.05
3654;BME280;70277;54.302;10.064;2024-03-08T02:13:31;102220.59;;;2.97;76.63
3654;BME280;70277;54.302;10.064;2024-03-08T02:15:59;102217.19;;;2.79;76.90
3654;BME280;70277;54.302;10.064;2024-03-08T02:18:27;102211.28;;;2.67;77.73
3654;BME280;70277;54.302;10.064;2024-03-08T02:20:58;102204.56;;;2.55;78.13
3654;BME280;70277;54.302;10.064;2024-03-08T02:23:26;102205.13;;;2.66;78.48
3654;BME280;70277;54.302;10.064;2024-03-08T02:25:54;102200.56;;;2.59;78.83
3654;BME280;70277;54.302;10.064;2024-03-08T02:28:22;102191.47;;;2.43;79.52
3654;BME280;70277;54.302;10.064;2024-03-08T02:30:50;102187.47;;;2.47;79.52
3654;BME280;70277;54.302;10.064;2024-03-08T02:33:23;102187.66;;;2.54;79.56
3654;BME280;70277;54.302;10.064;2024-03-08T02:35:51;102188.22;;;2.58;79.32
3654;BME280;70277;54.302;10.064;2024-03-08T02:38:19;102192.88;;;2.56;80.35
3654;BME280;70277;54.302;10.064;2024-03-08T02:40:48;102186.50;;;2.48;80.37
3654;BME280;70277;54.302;10.064;2024-03-08T02:43:16;102187.81;;;2.44;81.01
3654;BME280;70277;54.302;10.064;2024-03-08T02:45:44;102188.91;;;2.68;80.18
3654;BME280;70277;54.302;10.064;2024-03-08T02:48:14;102183.38;;;2.61;79.87
3654;BME280;70277;54.302;10.064;2024-03-08T02:50:41;102194.22;;;2.60;80.57
3654;BME280;70277;54.302;10.064;2024-03-08T02:53:13;102184.38;;;2.68;80.04
3654;BME280;70277;54.302;10.064;2024-03-08T02:55:40;102177.56;;;2.74;79.80
3654;BME280;70277;54.302;10.064;2024-03-08T02:58:08;102185.28;;;2.85;79.85
3654;BME280;70277;54.302;10.064;2024-03-08T03:00:37;102181.75;;;2.77;79.95
3654;BME280;70277;54.302;10.064;2024-03-08T03:03:06;102180.19;;;2.58;81.15
3654;BME280;70277;54.302;10.064;2024-03-08T03:05:33;102178.16;;;2.60;82.10
3654;BME280;70277;54.302;10.064;2024-03-08T03:08:00;102177.44;;;2.92;81.82
3654;BME280;70277;54.302;10.064;2024-03-08T03:10:27;102183.75;;;2.74;81.27
3654;BME280;70277;54.302;10.064;2024-03-08T03:12:54;102184.06;;;2.71;81.94
3654;BME280;70277;54.302;10.064;2024-03-08T03:15:20;102177.63;;;2.90;83.01
3654;BME280;70277;54.302;10.064;2024-03-08T03:17:48;102175.81;;;3.15;81.52
3654;BME280;70277;54.302;10.064;2024-03-08T03:20:17;102187.69;;;3.13;81.80
3654;BME280;70277;54.302;10.064;2024-03-08T03:22:49;102179.00;;;3.11;82.06
3654;BME280;70277;54.302;10.064;2024-03-08T03:25:19;102179.50;;;3.14;81.78
3654;BME280;70277;54.302;10.064;2024-03-08T03:27:52;102175.19;;;3.38;80.77
3654;BME280;70277;54.302;10.064;2024-03-08T03:30:19;102167.97;;;3.55;80.85
3654;BME280;70277;54.302;10.064;2024-03-08T03:32:50;102186.22;;;3.59;80.20
3654;BME280;70277;54.302;10.064;2024-03-08T03:35:18;102180.38;;;3.48;80.54
3654;BME280;70277;54.302;10.064;2024-03-08T03:37:47;102173.69;;;3.35;80.86
3654;BME280;70277;54.302;10.064;2024-03-08T03:40:49;102172.34;;;3.48;80.68
3654;BME280;70277;54.302;10.064;2024-03-08T03:43:18;102176.31;;;3.84;79.96
3654;BME280;70277;54.302;10.064;2024-03-08T03:45:45;102163.94;;;3.92;79.03
3654;BME280;70277;54.302;10.064;2024-03-08T03:48:11;102171.84;;;3.85;79.78
3654;BME280;70277;54.302;10.064;2024-03-08T03:50:39;102166.66;;;3.51;80.42
3654;BME280;70277;54.302;10.064;2024-03-08T03:53:07;102173.50;;;3.70;79.64
3654;BME280;70277;54.302;10.064;2024-03-08T03:55:35;102172.66;;;3.36;80.90
3654;BME280;70277;54.302;10.064;2024-03-08T03:58:03;102162.94;;;3.19;81.58
3654;BME280;70277;54.302;10.064;2024-03-08T04:00:30;102159.31;;;3.53;81.52
3654;BME280;70277;54.302;10.064;2024-03-08T04:02:56;102162.31;;;3.17;82.02
3654;BME280;70277;54.302;10.064;2024-03-08T04:05:25;102162.66;;;3.47;81.39
3654;BME280;70277;54.302;10.064;2024-03-08T04:07:52;102166.63;;;3.75;80.57
3654;BME280;70277;54.302;10.064;2024-03-08T04:10:19;102154.44;;;3.64;80.46
3654;BME280;70277;54.302;10.064;2024-03-08T04:12:46;102146.41;;;3.56;81.14
3654;BME280;70277;54.302;10.064;2024-03-08T04:15:13;102148.09;;;3.49;81.65
3654;BME280;70277;54.302;10.064;2024-03-08T04:17:40;102150.25;;;3.62;81.16
3654;BME280;70277;54.302;10.064;2024-03-08T04:20:07;102145.56;;;3.80;80.59
3654;BME280;70277;54.302;10.064;2024-03-08T04:22:38;102149.94;;;3.73;81.02
3654;BME280;70277;54.302;10.064;2024-03-08T04:25:06;102140.22;;;3.64;80.99
3654;BME280;70277;54.302;10.064;2024-03-08T04:27:33;102154.06;;;3.84;80.75
3654;BME280;70277;54.302;10.064;2024-03-08T04:30:01;102145.91;;;3.69;80.88
3654;BME280;70277;54.302;10.064;2024-03-08T04:32:28;102164.66;;;3.61;80.34
3654;BME280;70277;54.302;10.064;2024-03-08T04:34:56;102149.94;;;3.65;81.03
3654;BME280;70277;54.302;10.064;2024-03-08T04:37:23;102144.56;;;3.65;81.05
3654;BME280;70277;54.302;10.064;2024-03-08T04:39:50;102154.59;;;3.71;81.38
3654;BME280;70277;54.302;10.064;2024-03-08T04:42:16;102142.72;;;3.74;80.65
3654;BME280;70277;54.302;10.064;2024-03-08T04:44:44;102151.94;;;3.71;80.56
3654;BME280;70277;54.302;10.064;2024-03-08T04:47:11;102138.56;;;3.47;81.19
3654;BME280;70277;54.302;10.064;2024-03-08T04:49:38;102141.75;;;3.50;81.43
3654;BME280;70277;54.302;10.064;2024-03-08T04:52:05;102133.88;;;3.65;81.75
3654;BME280;70277;54.302;10.064;2024-03-08T04:54:33;102141.22;;;3.87;80.70
3654;BME280;70277;54.302;10.064;2024-03-08T04:56:59;102133.53;;;3.76;80.79
3654;BME280;70277;54.302;10.064;2024-03-08T04:59:27;102129.16;;;3.75;81.19
3654;BME280;70277;54.302;10.064;2024-03-08T05:01:54;102129.88;;;3.53;81.73
3654;BME280;70277;54.302;10.064;2024-03-08T05:04:21;102125.84;;;3.65;81.37
3654;BME280;70277;54.302;10.064;2024-03-08T05:06:47;102130.69;;;3.53;81.53
3654;BME280;70277;54.302;10.064;2024-03-08T05:09:14;102126.72;;;4.13;80.01
3654;BME280;70277;54.302;10.064;2024-03-08T05:11:43;102128.34;;;3.58;80.88
3654;BME280;70277;54.302;10.064;2024-03-08T05:14:11;102131.19;;;3.73;80.97
3654;BME280;70277;54.302;10.064;2024-03-08T05:16:37;102119.13;;;3.69;81.13
3654;BME280;70277;54.302;10.064;2024-03-08T05:19:04;102122.81;;;3.60;80.78
3654;BME280;70277;54.302;10.064;2024-03-08T05:21:30;102127.13;;;3.94;80.28
3654;BME280;70277;54.302;10.064;2024-03-08T05:23:57;102126.34;;;4.32;79.79
3654;BME280;70277;54.302;10.064;2024-03-08T05:26:24;102121.00;;;4.24;78.72
3654;BME280;70277;54.302;10.064;2024-03-08T05:28:50;102124.09;;;3.97;79.66
3654;BME280;70277;54.302;10.064;2024-03-08T05:31:20;102126.59;;;3.90;80.59
3654;BME280;70277;54.302;10.064;2024-03-08T05:33:50;102114.66;;;4.17;79.77
3654;BME280;70277;54.302;10.064;2024-03-08T05:36:17;102117.41;;;3.84;80.10
3654;BME280;70277;54.302;10.064;2024-03-08T05:38:43;102119.44;;;3.82;79.71
3654;BME280;70277;54.302;10.064;2024-03-08T05:41:10;102123.34;;;3.55;80.70
3654;BME280;70277;54.302;10.064;2024-03-08T05:43:40;102115.13;;;3.57;81.05
3654;BME280;70277;54.302;10.064;2024-03-08T05:46:06;102115.97;;;3.57;80.97
3654;BME280;70277;54.302;10.064;2024-03-08T05:48:33;102119.16;;;3.45;81.52
3654;BME280;70277;54.302;10.064;2024-03-08T05:51:00;102107.63;;;3.36;81.88
3654;BME280;70277;54.302;10.064;2024-03-08T05:53:28;102110.13;;;3.37;82.20
3654;BME280;70277;54.302;10.064;2024-03-08T05:55:58;102104.91;;;3.60;81.24
3654;BME280;70277;54.302;10.064;2024-03-08T05:58:25;102112.28;;;3.42;81.54
3654;BME280;70277;54.302;10.064;2024-03-08T06:00:52;102106.28;;;3.32;82.14
3654;BME280;70277;54.302;10.064;2024-03-08T06:03:19;102108.44;;;3.53;81.56
3654;BME280;70277;54.302;10.064;2024-03-08T06:05:48;102102.22;;;3.69;81.32
3654;BME280;70277;54.302;10.064;2024-03-08T06:08:15;102109.91;;;3.63;81.30
3654;BME280;70277;54.302;10.064;2024-03-08T06:10:42;102116.16;;;3.23;81.73
3654;BME280;70277;54.302;10.064;2024-03-08T06:13:09;102102.41;;;3.42;82.13
3654;BME280;70277;54.302;10.064;2024-03-08T06:15:35;102104.25;;;3.58;81.61
3654;BME280;70277;54.302;10.064;2024-03-08T06:18:02;102101.06;;;3.71;81.31
3654;BME280;70277;54.302;10.064;2024-03-08T06:20:29;102096.09;;;3.44;81.91
3654;BME280;70277;54.302;10.064;2024-03-08T06:22:56;102105.78;;;3.53;81.66
3654;BME280;70277;54.302;10.064;2024-03-08T06:25:22;102105.44;;;3.56;81.73
3654;BME280;70277;54.302;10.064;2024-03-08T06:27:49;102110.88;;;3.87;81.30
3654;BME280;70277;54.302;10.064;2024-03-08T06:30:15;102101.94;;;4.11;80.02
3654;BME280;70277;54.302;10.064;2024-03-08T06:32:43;102106.34;;;3.96;80.39
3654;BME280;70277;54.302;10.064;2024-03-08T06:35:10;102100.97;;;4.04;80.47
3654;BME280;70277;54.302;10.064;2024-03-08T06:37:36;102111.41;;;3.91;79.78
3654;BME280;70277;54.302;10.064;2024-03-08T06:40:03;102100.72;;;4.30;79.64
3654;BME280;70277;54.302;10.064;2024-03-08T06:42:30;102090.75;;;4.07;79.70
3654;BME280;70277;54.302;10.064;2024-03-08T06:45:02;102097.72;;;4.17;79.76
3654;BME280;70277;54.302;10.064;2024-03-08T06:47:32;102100.16;;;4.43;79.29
3654;BME280;70277;54.302;10.064;2024-03-08T06:50:00;102095.44;;;4.76;78.42
3654;BME280;70277;54.302;10.064;2024-03-08T06:52:26;102094.16;;;4.32;78.89
3654;BME280;70277;54.302;10.064;2024-03-08T06:54:53;102100.50;;;4.40;79.01
3654;BME280;70277;54.302;10.064;2024-03-08T06:57:19;102096.50;;;4.36;78.62
3654;BME280;70277;54.302;10.064;2024-03-08T06:59:49;102100.97;;;4.04;79.67
3654;BME280;70277;54.302;10.064;2024-03-08T07:02:15;102098.63;;;4.01;79.91
3654;BME280;70277;54.302;10.064;2024-03-08T07:04:42;102093.03;;;4.27;79.08
3654;BME280;70277;54.302;10.064;2024-03-08T07:07:09;102093.59;;;4.45;78.60
3654;BME280;70277;54.302;10.064;2024-03-08T07:09:36;102096.75;;;4.80;77.30
3654;BME280;70277;54.302;10.064;2024-03-08T07:12:03;102095.94;;;4.79;78.13
3654;BME280;70277;54.302;10.064;2024-03-08T07:14:30;102100.66;;;5.00;77.37
3654;BME280;70277;54.302;10.064;2024-03-08T07:17:00;102107.56;;;5.18;76.86
3654;BME280;70277;54.302;10.064;2024-03-08T07:19:30;102108.81;;;5.07;76.16
3654;BME280;70277;54.302;10.064;2024-03-08T07:21:56;102105.19;;;5.00;76.75
3654;BME280;70277;54.302;10.064;2024-03-08T07:24:23;102100.84;;;5.37;75.92
3654;BME280;70277;54.302;10.064;2024-03-08T07:27:04;102102.72;;;5.36;76.26
3654;BME280;70277;54.302;10.064;2024-03-08T07:29:32;102090.91;;;5.60;74.83
3654;BME280;70277;54.302;10.064;2024-03-08T07:32:00;102091.72;;;5.46;75.01
3654;BME280;70277;54.302;10.064;2024-03-08T07:34:26;102096.81;;;5.56;75.31
3654;BME280;70277;54.302;10.064;2024-03-08T07:36:53;102087.03;;;5.78;75.47
3654;BME280;70277;54.302;10.064;2024-03-08T07:39:22;102089.09;;;6.20;73.64
3654;BME280;70277;54.302;10.064;2024-03-08T07:41:50;102087.00;;;6.52;72.52
3654;BME280;70277;54.302;10.064;2024-03-08T07:44:19;102080.28;;;6.77;72.07
3654;BME280;70277;54.302;10.064;2024-03-08T07:46:45;102086.81;;;7.11;71.64
3654;BME280;70277;54.302;10.064;2024-03-08T07:49:12;102083.06;;;6.69;70.83
3654;BME280;70277;54.302;10.064;2024-03-08T07:51:40;102073.94;;;6.49;71.92
3654;BME280;70277;54.302;10.064;2024-03-08T07:54:07;102077.03;;;6.67;72.50
3654;BME280;70277;54.302;10.064;2024-03-08T07:56:35;102067.81;;;6.55;71.60
3654;BME280;70277;54.302;10.064;2024-03-08T07:59:04;102076.84;;;6.18;72.50
3654;BME280;70277;54.302;10.064;2024-03-08T08:01:30;102078.75;;;6.53;70.94
3654;BME280;70277;54.302;10.064;2024-03-08T08:03:58;102075.31;;;6.45;70.85
3654;BME280;70277;54.302;10.064;2024-03-08T08:06:24;102078.53;;;6.70;70.66
3654;BME280;70277;54.302;10.064;2024-03-08T08:08:51;102078.06;;;6.66;70.17
3654;BME280;70277;54.302;10.064;2024-03-08T08:11:18;102080.81;;;6.51;71.31
3654;BME280;70277;54.302;10.064;2024-03-08T08:13:45;102077.59;;;6.26;70.71
3654;BME280;70277;54.302;10.064;2024-03-08T08:16:11;102080.44;;;6.54;70.36
3654;BME280;70277;54.302;10.064;2024-03-08T08:18:39;102070.75;;;5.94;70.98
3654;BME280;70277;54.302;10.064;2024-03-08T08:21:07;102078.44;;;5.97;72.09
3654;BME280;70277;54.302;10.064;2024-03-08T08:23:33;102076.56;;;6.78;70.85
3654;BME280;70277;54.302;10.064;2024-03-08T08:26:00;102084.13;;;6.90;69.95
3654;BME280;70277;54.302;10.064;2024-03-08T08:28:29;102089.88;;;7.86;68.15
3654;BME280;70277;54.302;10.064;2024-03-08T08:30:57;102079.75;;;8.36;66.03
3654;BME280;70277;54.302;10.064;2024-03-08T08:33:23;102080.84;;;8.41;64.49
3654;BME280;70277;54.302;10.064;2024-03-08T08:35:51;102090.19;;;7.69;66.06
3654;BME280;70277;54.302;10.064;2024-03-08T08:38:20;102079.28;;;7.06;67.48
3654;BME280;70277;54.302;10.064;2024-03-08T08:40:46;102087.38;;;7.06;67.91
3654;BME280;70277;54.302;10.064;2024-03-08T08:43:13;102077.44;;;6.86;68.38
3654;BME280;70277;54.302;10.064;2024-03-08T08:45:40;102082.25;;;6.69;69.23
3654;BME280;70277;54.302;10.064;2024-03-08T08:48:07;102072.00;;;7.00;67.98
3654;BME280;70277;54.302;10.064;2024-03-08T08:50:33;102075.78;;;7.06;68.70
3654;BME280;70277;54.302;10.064;2024-03-08T08:53:00;102070.84;;;7.31;67.36
3654;BME280;70277;54.302;10.064;2024-03-08T08:55:27;102064.59;;;7.87;65.75
3654;BME280;70277;54.302;10.064;2024-03-08T08:57:54;102062.78;;;7.66;66.71
3654;BME280;70277;54.302;10.064;2024-03-08T09:00:21;102061.53;;;7.96;64.96
3654;BME280;70277;54.302;10.064;2024-03-08T09:02:50;102055.84;;;8.26;63.19
3654;BME280;70277;54.302;10.064;2024-03-08T09:05:17;102057.75;;;8.32;63.85
3654;BME280;70277;54.302;10.064;2024-03-08T09:07:44;102057.63;;;8.54;63.04
3654;BME280;70277;54.302;10.064;2024-03-08T09:10:11;102056.03;;;8.25;63.65
3654;BME280;70277;54.302;10.064;2024-03-08T09:12:43;102049.25;;;8.29;63.70
3654;BME280;70277;54.302;10.064;2024-03-08T09:15:10;102042.09;;;8.08;64.01
3654;BME280;70277;54.302;10.064;2024-03-08T09:17:40;102046.84;;;8.06;64.13
3654;BME280;70277;54.302;10.064;2024-03-08T09:20:09;102029.53;;;8.35;63.97
3654;BME280;70277;54.302;10.064;2024-03-08T09:22:36;102042.09;;;8.62;62.90
3654;BME280;70277;54.302;10.064;2024-03-08T09:25:04;102039.88;;;8.99;61.85
3654;BME280;70277;54.302;10.064;2024-03-08T09:27:31;102036.09;;;8.87;62.34
3654;BME280;70277;54.302;10.064;2024-03-08T09:29:58;102034.25;;;9.01;60.63
3654;BME280;70277;54.302;10.064;2024-03-08T09:32:25;102034.66;;;9.51;60.84
3654;BME280;70277;54.302;10.064;2024-03-08T09:34:52;102021.81;;;9.26;60.16
3654;BME280;70277;54.302;10.064;2024-03-08T09:37:19;102018.88;;;9.41;60.51
3654;BME280;70277;54.302;10.064;2024-03-08T09:39:46;102020.56;;;10.07;58.41
3654;BME280;70277;54.302;10.064;2024-03-08T09:42:12;102021.56;;;10.19;58.31
3654;BME280;70277;54.302;10.064;2024-03-08T09:44:45;102026.75;;;10.98;56.26
3654;BME280;70277;54.302;10.064;2024-03-08T09:47:15;102017.75;;;10.72;55.79
3654;BME280;70277;54.302;10.064;2024-03-08T09:49:42;102019.50;;;11.16;55.86
3654;BME280;70277;54.302;10.064;2024-03-08T09:52:10;102010.38;;;11.36;55.00
3654;BME280;70277;54.302;10.064;2024-03-08T09:54:37;102000.13;;;12.30;54.08
3654;BME280;70277;54.302;10.064;2024-03-08T09:57:04;101994.59;;;12.67;52.40
3654;BME280;70277;54.302;10.064;2024-03-08T09:59:30;101994.53;;;13.09;51.13
3654;BME280;70277;54.302;10.064;2024-03-08T10:02:03;101993.00;;;13.25;50.70
3654;BME280;70277;54.302;10.064;2024-03-08T10:04:31;101997.41;;;13.14;51.10
3654;BME280;70277;54.302;10.064;2024-03-08T10:07:00;101987.59;;;13.60;50.98
3654;BME280;70277;54.302;10.064;2024-03-08T10:09:28;101987.81;;;14.10;48.93
3654;BME280;70277;54.302;10.064;2024-03-08T10:11:57;101973.72;;;14.14;47.56
3654;BME280;70277;54.302;10.064;2024-03-08T10:14:27;101980.97;;;13.68;49.93
3654;BME280;70277;54.302;10.064;2024-03-08T10:16:54;101992.03;;;13.89;46.98
3654;BME280;70277;54.302;10.064;2024-03-08T10:19:20;101973.38;;;14.10;46.75
3654;BME280;70277;54.302;10.064;2024-03-08T10:21:51;101970.06;;;14.37;46.28
3654;BME280;70277;54.302;10.064;2024-03-08T10:24:23;101973.19;;;13.48;47.64
3654;BME280;70277;54.302;10.064;2024-03-08T10:27:00;101967.25;;;14.03;46.31
3654;BME280;70277;54.302;10.064;2024-03-08T10:29:28;101964.28;;;14.78;45.54
3654;BME280;70277;54.302;10.064;2024-03-08T10:31:55;101973.44;;;14.72;45.09
3654;BME280;70277;54.302;10.064;2024-03-08T10:34:23;101962.22;;;14.69;44.51
3654;BME280;70277;54.302;10.064;2024-03-08T10:36:51;101955.78;;;14.29;45.11
3654;BME280;70277;54.302;10.064;2024-03-08T10:39:23;101952.25;;;14.46;46.11
3654;BME280;70277;54.302;10.064;2024-03-08T10:41:56;101953.97;;;14.81;46.64
3654;BME280;70277;54.302;10.064;2024-03-08T10:47:03;101948.03;;;13.81;44.72
3654;BME280;70277;54.302;10.064;2024-03-08T10:52:20;101949.16;;;14.54;44.41
3654;BME280;70277;54.302;10.064;2024-03-08T10:54:48;101942.75;;;14.03;45.82
3654;BME280;70277;54.302;10.064;2024-03-08T10:57:18;101932.53;;;14.39;44.65
3654;BME280;70277;54.302;10.064;2024-03-08T10:59:48;101928.06;;;14.32;43.81
3654;BME280;70277;54.302;10.064;2024-03-08T11:02:17;101936.44;;;15.27;42.78
3654;BME280;70277;54.302;10.064;2024-03-08T11:04:50;101927.06;;;14.67;44.60
3654;BME280;70277;54.302;10.064;2024-03-08T11:07:16;101915.88;;;14.35;44.10
3654;BME280;70277;54.302;10.064;2024-03-08T11:09:49;101923.22;;;14.34;44.18
3654;BME280;70277;54.302;10.064;2024-03-08T11:12:20;101915.50;;;14.77;44.11
3654;BME280;70277;54.302;10.064;2024-03-08T11:14:51;101910.66;;;14.33;43.25
3654;BME280;70277;54.302;10.064;2024-03-08T11:17:25;101912.00;;;14.48;42.83
3654;BME280;70277;54.302;10.064;2024-03-08T11:19:55;101898.47;;;14.87;43.43
3654;BME280;70277;54.302;10.064;2024-03-08T11:22:27;101896.56;;;15.26;42.13
3654;BME280;70277;54.302;10.064;2024-03-08T11:25:08;101893.34;;;15.68;42.39
3654;BME280;70277;54.302;10.064;2024-03-08T11:27:37;101893.41;;;15.12;43.81
3654;BME280;70277;54.302;10.064;2024-03-08T11:30:05;101889.75;;;15.67;43.12
3654;BME280;70277;54.302;10.064;2024-03-08T11:32:44;101892.25;;;16.55;42.23
3654;BME280;70277;54.302;10.064;2024-03-08T11:35:21;101893.00;;;15.04;42.87
3654;BME280;70277;54.302;10.064;2024-03-08T11:37:50;101884.03;;;14.07;44.11
3654;BME280;70277;54.302;10.064;2024-03-08T11:40:17;101877.75;;;14.86;42.97
3654;BME280;70277;54.302;10.064;2024-03-08T11:42:46;101868.28;;;14.71;43.16
3654;BME280;70277;54.302;10.064;2024-03-08T11:45:17;101865.25;;;15.73;41.66
3654;BME280;70277;54.302;10.064;2024-03-08T11:47:45;101859.56;;;15.74;41.25
3654;BME280;70277;54.302;10.064;2024-03-08T11:50:16;101864.94;;;15.47;41.27
3654;BME280;70277;54.302;10.064;2024-03-08T11:52:45;101870.25;;;14.59;42.30
3654;BME280;70277;54.302;10.064;2024-03-08T11:55:12;101857.13;;;15.12;41.77
3654;BME280;70277;54.302;10.064;2024-03-08T11:57:39;101860.78;;;15.00;42.45
3654;BME280;70277;54.302;10.064;2024-03-08T12:00:15;101850.09;;;15.38;42.62
3654;BME280;70277;54.302;10.064;2024-03-08T12:03:01;101859.78;;;15.07;43.67
3654;BME280;70277;54.302;10.064;2024-03-08T12:05:28;101852.75;;;14.55;42.05
3654;BME280;70277;54.302;10.064;2024-03-08T12:07:58;101837.41;;;15.71;40.95
3654;BME280;70277;54.302;10.064;2024-03-08T12:10:28;101831.38;;;15.96;39.45
3654;BME280;70277;54.302;10.064;2024-03-08T12:12:57;101834.44;;;16.31;40.94
3654;BME280;70277;54.302;10.064;2024-03-08T12:15:26;101826.84;;;15.79;43.10
3654;BME280;70277;54.302;10.064;2024-03-08T12:17:55;101826.88;;;16.81;40.28
3654;BME280;70277;54.302;10.064;2024-03-08T12:20:26;101828.84;;;16.91;40.43
3654;BME280;70277;54.302;10.064;2024-03-08T12:22:53;101819.00;;;16.52;41.07
3654;BME280;70277;54.302;10.064;2024-03-08T12:25:26;101816.22;;;16.10;42.21
3654;BME280;70277;54.302;10.064;2024-03-08T12:27:54;101807.22;;;15.82;42.65
3654;BME280;70277;54.302;10.064;2024-03-08T12:30:26;101799.69;;;15.67;43.64
3654;BME280;70277;54.302;10.064;2024-03-08T12:32:58;101794.88;;;15.75;42.90
3654;BME280;70277;54.302;10.064;2024-03-08T12:35:27;101804.31;;;15.94;43.07
3654;BME280;70277;54.302;10.064;2024-03-08T12:37:58;101788.00;;;16.31;42.12
3654;BME280;70277;54.302;10.064;2024-03-08T12:40:29;101789.84;;;14.73;44.49
3654;BME280;70277;54.302;10.064;2024-03-08T12:42:56;101779.38;;;14.87;43.88
3654;BME280;70277;54.302;10.064;2024-03-08T12:45:23;101780.94;;;14.44;44.85
3654;BME280;70277;54.302;10.064;2024-03-08T12:47:54;101779.81;;;15.45;44.11
3654;BME280;70277;54.302;10.064;2024-03-08T12:50:22;101774.47;;;16.14;42.36
3654;BME280;70277;54.302;10.064;2024-03-08T12:52:49;101769.09;;;15.65;42.91
3654;BME280;70277;54.302;10.064;2024-03-08T12:55:19;101764.47;;;15.39;43.99
3654;BME280;70277;54.302;10.064;2024-03-08T12:57:46;101757.56;;;15.58;42.80
3654;BME280;70277;54.302;10.064;2024-03-08T13:00:14;101762.13;;;14.09;45.91
3654;BME280;70277;54.302;10.064;2024-03-08T13:02:40;101758.91;;;13.95;46.19
3654;BME280;70277;54.302;10.064;2024-03-08T13:05:08;101760.41;;;14.75;45.25
3654;BME280;70277;54.302;10.064;2024-03-08T13:07:37;101753.31;;;14.74;45.25